Time;durP1;ratioP1;P1;durP2;ratioP2;P2;SDS_P1;SDS_P2;PMS_P1;PMS_P2;Temp;Humidity;BMP_temperature;BMP_pressure;BME280_temperature;BME280_humidity;BME280_pressure;Samples;Min_cycle;Max_cycle;Signal;HPM_P1;HPM_P2
2023/10/04 00:03:50;;;;;;;3.13;1.77;;;;;;;15.47;76.07;101211.03;10310924;28;20414;-65
2023/10/04 00:08:52;;;;;;;4.00;1.98;;;;;;;15.49;76.63;101214.44;10310215;28;20532;-65
2023/10/04 00:13:54;;;;;;;4.03;2.25;;;;;;;15.43;76.50;101209.56;10310694;28;20049;-64
2023/10/04 00:18:56;;;;;;;3.95;2.00;;;;;;;15.49;76.40;101218.94;10309780;28;20052;-63
2023/10/04 00:23:59;;;;;;;3.95;1.95;;;;;;;15.43;74.98;101212.25;10312850;28;20056;-66
2023/10/04 00:29:04;;;;;;;3.15;1.55;;;;;;;15.40;76.88;101220.56;10309638;28;20084;-65
2023/10/04 00:34:08;;;;;;;3.53;1.63;;;;;;;15.37;76.16;101215.47;10312148;28;20546;-64
2023/10/04 00:39:13;;;;;;;;;;;;;;;15.31;75.17;101216.88;10301658;28;20053;-65
2023/10/04 00:44:14;;;;;;;2.40;1.60;;;;;;;15.24;76.36;101238.94;10309244;28;19965;-64
2023/10/04 00:49:17;;;;;;;5.22;1.90;;;;;;;15.16;75.19;101235.13;10311066;28;20062;-66
2023/10/04 00:54:18;;;;;;;2.20;1.52;;;;;;;14.95;76.24;101216.31;10309200;28;20188;-65
2023/10/04 00:59:20;;;;;;;3.08;1.52;;;;;;;14.97;77.10;101232.28;10311550;28;20129;-63
2023/10/04 01:04:21;;;;;;;4.28;1.73;;;;;;;15.04;75.43;101241.47;10312933;28;20125;-63
2023/10/04 01:09:23;;;;;;;2.97;1.77;;;;;;;14.99;76.88;101228.47;10303158;28;20476;-66
2023/10/04 01:14:26;;;;;;;3.83;1.70;;;;;;;14.82;75.78;101237.94;10297468;28;20085;-64
2023/10/04 01:19:28;;;;;;;4.50;1.60;;;;;;;14.89;77.08;101256.19;10301550;28;20161;-64
2023/10/04 01:24:29;;;;;;;2.40;1.23;;;;;;;14.92;77.70;101255.91;10299552;28;20080;-63
2023/10/04 01:29:31;;;;;;;2.85;1.85;;;;;;;14.96;76.47;101254.69;10308438;28;20050;-64
2023/10/04 01:34:32;;;;;;;4.65;1.40;;;;;;;14.94;76.16;101248.63;10308314;28;20065;-62
2023/10/04 01:39:36;;;;;;;3.67;1.48;;;;;;;14.89;76.51;101273.09;10314369;28;20069;-63
2023/10/04 01:44:38;;;;;;;2.25;1.73;;;;;;;14.84;77.09;101265.44;10305708;28;20048;-65
2023/10/04 01:49:39;;;;;;;2.78;1.73;;;;;;;14.91;78.37;101281.03;10305057;28;20331;-64
2023/10/04 01:54:41;;;;;;;4.22;1.67;;;;;;;14.89;76.99;101289.19;10305088;28;20046;-63
2023/10/04 01:59:42;;;;;;;2.42;1.60;;;;;;;14.74;76.11;101272.56;10305115;28;20058;-63
2023/10/04 02:04:44;;;;;;;3.53;1.83;;;;;;;14.76;78.91;101284.00;10306362;28;20058;-66
2023/10/04 02:09:46;;;;;;;3.33;2.10;;;;;;;14.72;77.28;101273.66;10311329;28;20054;-65
2023/10/04 02:14:53;;;;;;;2.63;1.45;;;;;;;14.65;77.78;101262.56;10305032;28;20077;-65
2023/10/04 02:19:55;;;;;;;3.05;1.40;;;;;;;14.64;76.62;101261.72;10293341;28;20062;-67
2023/10/04 02:24:57;;;;;;;3.67;1.98;;;;;;;14.58;76.92;101253.31;10303160;28;20101;-63
2023/10/04 02:29:58;;;;;;;2.92;1.58;;;;;;;14.49;76.35;101269.16;10308357;28;20054;-63
2023/10/04 02:35:00;;;;;;;4.40;1.75;;;;;;;14.45;77.27;101267.69;10294915;28;20054;-64
2023/10/04 02:40:14;;;;;;;3.88;2.17;;;;;;;14.42;76.57;101256.38;10305592;28;20055;-65
2023/10/04 02:45:18;;;;;;;;;;;;;;;14.35;76.31;101263.22;10305694;28;20576;-64
2023/10/04 02:50:23;;;;;;;2.67;1.70;;;;;;;14.29;76.16;101260.06;10295674;28;19961;-62
2023/10/04 02:55:24;;;;;;;2.30;1.70;;;;;;;14.20;76.46;101247.41;10305984;28;20128;-64
2023/10/04 03:00:25;;;;;;;2.80;1.88;;;;;;;14.09;77.22;101245.56;10306706;28;20061;-65
2023/10/04 03:05:31;;;;;;;3.78;1.73;;;;;;;14.10;77.59;101246.44;10303189;28;20061;-63
2023/10/04 03:10:34;;;;;;;4.43;2.25;;;;;;;14.18;77.93;101268.09;10263414;28;20050;-65
2023/10/04 03:15:36;;;;;;;4.53;1.95;;;;;;;14.01;78.68;101245.34;10266499;28;20197;-66
2023/10/04 03:20:37;;;;;;;2.58;1.77;;;;;;;14.24;78.36;101280.97;10266542;28;20052;-65
2023/10/04 03:25:39;;;;;;;3.83;2.20;;;;;;;14.09;77.37;101253.59;10263182;28;20222;-65
2023/10/04 03:30:44;;;;;;;4.05;1.95;;;;;;;14.11;77.56;101262.38;10267890;28;20122;-64
2023/10/04 03:35:47;;;;;;;3.03;1.88;;;;;;;13.96;77.60;101272.47;10263295;28;20065;-64
2023/10/04 03:40:48;;;;;;;6.95;2.00;;;;;;;13.94;76.97;101262.84;10266042;28;20079;-63
2023/10/04 03:45:50;;;;;;;3.22;1.77;;;;;;;13.85;78.15;101258.22;10266446;28;20181;-64
2023/10/04 03:50:52;;;;;;;3.25;2.22;;;;;;;13.86;77.98;101257.28;10262501;28;20478;-64
2023/10/04 03:55:53;;;;;;;2.95;1.92;;;;;;;13.79;78.85;101239.00;10262046;28;20193;-64
2023/10/04 04:00:54;;;;;;;4.18;1.77;;;;;;;13.86;77.98;101249.25;10263638;28;20058;-66
2023/10/04 04:05:56;;;;;;;2.78;2.05;;;;;;;13.75;78.28;101252.72;10263290;28;20084;-65
2023/10/04 04:10:58;;;;;;;2.75;1.40;;;;;;;13.81;77.81;101254.97;10262350;28;20097;-65
2023/10/04 04:15:59;;;;;;;4.22;1.80;;;;;;;13.74;76.87;101251.88;10258575;28;20133;-65
2023/10/04 04:21:05;;;;;;;4.05;1.83;;;;;;;13.65;78.05;101231.22;10249933;28;20058;-64
2023/10/04 04:26:07;;;;;;;4.10;2.13;;;;;;;13.58;77.42;101208.56;10258893;28;20113;-66
2023/10/04 04:31:14;;;;;;;3.35;1.85;;;;;;;13.76;76.93;101238.38;10267428;28;20057;-65
2023/10/04 04:36:26;;;;;;;5.65;2.17;;;;;;;13.75;77.37;101229.53;10282059;28;20497;-64
2023/10/04 04:41:29;;;;;;;5.75;1.92;;;;;;;13.77;78.57;101224.88;10264052;28;20047;-67
2023/10/04 04:46:34;;;;;;;2.47;1.75;;;;;;;13.76;78.36;101215.16;10256579;28;20288;-66
2023/10/04 04:51:35;;;;;;;3.42;1.92;;;;;;;13.86;78.14;101225.16;10284616;28;20089;-66
2023/10/04 04:56:37;;;;;;;5.50;2.10;;;;;;;13.91;77.49;101236.34;10302126;28;20126;-67
2023/10/04 05:01:39;;;;;;;4.72;1.83;;;;;;;13.96;79.17;101236.81;10299092;28;20058;-66
2023/10/04 05:06:41;;;;;;;4.75;2.15;;;;;;;13.94;77.75;101230.72;10310630;28;20053;-66
2023/10/04 05:11:44;;;;;;;4.05;1.98;;;;;;;13.92;77.91;101222.81;10302893;28;20058;-65
2023/10/04 05:16:46;;;;;;;4.88;1.60;;;;;;;13.91;78.02;101220.28;10311450;28;20053;-66
2023/10/04 05:21:47;;;;;;;5.10;2.38;;;;;;;13.94;76.48;101233.41;10302634;28;20578;-67
2023/10/04 05:26:49;;;;;;;6.32;1.70;;;;;;;13.91;77.05;101236.34;10306970;28;20480;-66
2023/10/04 05:31:50;;;;;;;5.03;1.73;;;;;;;13.80;77.20;101237.19;10307151;28;20054;-64
2023/10/04 05:36:52;;;;;;;5.85;2.15;;;;;;;13.84;76.26;101252.03;10309177;28;20050;-66
2023/10/04 05:41:54;;;;;;;3.92;1.52;;;;;;;13.79;76.23;101260.41;10306405;28;20089;-64
2023/10/04 05:46:56;;;;;;;4.32;1.90;;;;;;;13.73;76.42;101271.59;10306999;28;20558;-65
2023/10/04 05:51:58;;;;;;;3.30;1.50;;;;;;;13.68;77.37;101267.59;10310225;28;20612;-65
2023/10/04 05:57:01;;;;;;;4.53;1.55;;;;;;;13.70;77.79;101298.56;10304935;28;20045;-65
2023/10/04 06:02:03;;;;;;;4.60;2.03;;;;;;;13.74;76.77;101292.03;10293620;28;20061;-65
2023/10/04 06:07:07;;;;;;;6.78;1.98;;;;;;;13.70;77.09;101309.28;10306538;28;20309;-66
2023/10/04 06:12:08;;;;;;;6.97;2.27;;;;;;;13.66;76.87;101323.88;10297557;28;20054;-65
2023/10/04 06:17:10;;;;;;;2.88;1.80;;;;;;;13.65;76.61;101310.63;10292301;28;20335;-67
2023/10/04 06:22:12;;;;;;;3.38;2.05;;;;;;;13.71;77.05;101327.06;10292170;28;20204;-66
2023/10/04 06:27:13;;;;;;;3.92;2.13;;;;;;;13.73;76.30;101321.56;10303667;28;20049;-65
2023/10/04 06:32:14;;;;;;;4.47;1.60;;;;;;;13.86;76.97;101321.50;10289561;28;20079;-66
2023/10/04 06:37:16;;;;;;;5.70;2.20;;;;;;;13.92;76.06;101321.03;10282768;28;20061;-66
2023/10/04 06:42:17;;;;;;;6.15;2.38;;;;;;;14.01;75.87;101328.31;10304408;28;20570;-66
2023/10/04 06:47:20;;;;;;;7.18;2.42;;;;;;;14.03;75.43;101326.38;10290437;28;20484;-66
2023/10/04 06:52:22;;;;;;;6.80;2.22;;;;;;;14.02;76.27;101335.41;10288859;28;20044;-66
2023/10/04 06:57:23;;;;;;;3.63;2.10;;;;;;;14.21;75.93;101339.28;10302274;28;20061;-64
2023/10/04 07:02:25;;;;;;;3.90;2.40;;;;;;;14.23;76.56;101348.06;10298980;28;20086;-66
2023/10/04 07:07:26;;;;;;;5.00;2.17;;;;;;;14.24;75.54;101344.41;10286231;28;20065;-64
2023/10/04 07:12:28;;;;;;;4.85;2.55;;;;;;;14.21;76.33;101355.38;10287700;28;20809;-65
2023/10/04 07:17:30;;;;;;;4.68;1.92;;;;;;;14.11;75.98;101360.56;10299521;28;20117;-65
2023/10/04 07:22:32;;;;;;;6.80;2.88;;;;;;;14.35;76.31;101373.84;10298460;28;20060;-64
2023/10/04 07:27:34;;;;;;;10.45;2.72;;;;;;;14.53;75.54;101379.59;10300620;28;20049;-65
2023/10/04 07:32:36;;;;;;;4.50;2.50;;;;;;;14.68;74.42;101374.88;10301321;28;20061;-65
2023/10/04 07:37:39;;;;;;;5.45;2.40;;;;;;;14.70;74.68;101380.09;10281344;28;20571;-66
2023/10/04 07:42:45;;;;;;;5.20;2.45;;;;;;;14.79;74.50;101392.78;10295605;28;20136;-67
2023/10/04 07:47:47;;;;;;;6.38;2.05;;;;;;;14.89;73.60;101398.25;10298464;28;20076;-66
2023/10/04 07:52:54;;;;;;;2.97;1.65;;;;;;;15.00;73.55;101412.50;10301790;28;20049;-65
2023/10/04 07:58:03;;;;;;;4.40;1.88;;;;;;;15.11;72.96;101406.25;10303494;28;20057;-69
2023/10/04 08:03:06;;;;;;;7.30;3.05;;;;;;;15.28;72.80;101412.94;10300139;28;20054;-68
2023/10/04 08:08:09;;;;;;;5.03;2.30;;;;;;;15.32;72.05;101378.66;10263024;28;20070;-66
2023/10/04 08:13:10;;;;;;;5.60;1.73;;;;;;;15.56;69.86;101403.44;10260276;28;20061;-66
2023/10/04 08:18:16;;;;;;;5.80;2.47;;;;;;;15.51;70.88;101388.72;10260952;28;20046;-66
2023/10/04 08:23:18;;;;;;;3.97;1.92;;;;;;;15.58;69.70;101371.09;10260303;28;20711;-67
2023/10/04 08:28:19;;;;;;;4.85;2.15;;;;;;;15.84;70.32;101394.94;10267686;28;20050;-65
2023/10/04 08:33:25;;;;;;;4.75;1.73;;;;;;;16.22;70.06;101410.44;10267281;28;20054;-66
2023/10/04 08:38:26;;;;;;;4.20;2.30;;;;;;;16.15;68.08;101379.72;10264074;28;20054;-67
2023/10/04 08:43:31;;;;;;;5.55;2.72;;;;;;;16.37;67.42;101396.69;10268332;28;20183;-64
2023/10/04 08:48:32;;;;;;;;;;;;;;;16.53;67.71;101399.72;10267370;28;20450;-66
2023/10/04 08:53:53;;;;;;;5.07;1.80;;;;;;;16.61;67.23;101405.28;10271139;28;20262;-66
2023/10/04 08:58:57;;;;;;;5.15;2.13;;;;;;;16.67;65.68;101400.34;10267636;28;21530;-66
2023/10/04 09:04:01;;;;;;;6.00;2.10;;;;;;;17.02;66.95;101407.16;10265094;28;20208;-65
2023/10/04 09:09:05;;;;;;;4.38;2.10;;;;;;;17.41;64.44;101391.06;10266309;28;20050;-64
2023/10/04 09:14:08;;;;;;;5.05;2.13;;;;;;;17.57;64.55;101407.50;10266671;28;20046;-66
2023/10/04 09:19:17;;;;;;;7.07;2.87;;;;;;;17.72;63.57;101399.03;10266200;28;20142;-66
2023/10/04 09:24:20;;;;;;;3.80;1.65;;;;;;;17.80;61.71;101383.00;10262443;28;20504;-65
2023/10/04 09:29:30;;;;;;;7.00;1.80;;;;;;;18.18;63.22;101389.34;10262076;28;20128;-64
2023/10/04 09:34:33;;;;;;;7.80;2.45;;;;;;;18.57;60.87;101389.22;10264342;28;20705;-66
2023/10/04 09:39:37;;;;;;;3.92;1.23;;;;;;;18.90;61.21;101395.91;10264897;28;20571;-66
2023/10/04 09:44:38;;;;;;;3.90;1.70;;;;;;;19.09;58.33;101380.59;10264671;28;20086;-66
2023/10/04 09:49:48;;;;;;;4.85;1.83;;;;;;;19.21;59.45;101397.41;10266405;28;20256;-66
2023/10/04 09:54:53;;;;;;;5.07;1.90;;;;;;;19.60;55.87;101397.13;10252360;28;20065;-65
2023/10/04 09:59:57;;;;;;;5.40;1.90;;;;;;;20.11;55.73;101400.94;10302191;28;20082;-65
2023/10/04 10:05:01;;;;;;;4.93;1.75;;;;;;;20.02;56.57;101393.78;10301537;28;20074;-66
2023/10/04 10:10:12;;;;;;;5.78;2.10;;;;;;;20.20;54.00;101401.84;10287641;28;20164;-65
2023/10/04 10:15:21;;;;;;;3.38;1.52;;;;;;;20.25;53.92;101385.13;10305399;28;20057;-66
2023/10/04 10:20:22;;;;;;;4.05;1.90;;;;;;;20.36;52.68;101387.59;10292357;28;20547;-65
2023/10/04 10:25:25;;;;;;;3.75;1.40;;;;;;;20.77;54.46;101374.28;10290896;28;20177;-66
2023/10/04 10:30:30;;;;;;;3.67;1.42;;;;;;;20.83;51.94;101373.63;10286659;28;20134;-66
2023/10/04 10:35:56;;;;;;;4.32;1.70;;;;;;;20.91;51.37;101374.66;10303244;28;20060;-66
2023/10/04 10:40:57;;;;;;;4.38;1.25;;;;;;;21.17;52.17;101352.91;10301675;28;20042;-65
2023/10/04 10:46:31;;;;;;;4.28;1.02;;;;;;;21.51;47.48;101366.38;10296926;28;20437;-66
2023/10/04 10:51:39;;;;;;;;;;;;;;;21.80;46.01;101358.72;10304088;28;20053;-65
2023/10/04 10:56:41;;;;;;;7.28;1.45;;;;;;;22.21;46.72;101362.22;10302841;28;19922;-65
2023/10/04 11:01:42;;;;;;;4.28;1.70;;;;;;;22.38;45.63;101344.06;10304892;28;20595;-65
2023/10/04 11:06:45;;;;;;;6.80;1.60;;;;;;;22.39;49.16;101350.34;10303973;28;20054;-65
2023/10/04 11:11:47;;;;;;;7.65;1.90;;;;;;;22.42;46.74;101352.69;10299439;28;20049;-65
2023/10/04 11:16:49;;;;;;;3.92;1.58;;;;;;;22.66;44.84;101354.47;10302563;28;20057;-64
2023/10/04 11:21:51;;;;;;;3.33;1.25;;;;;;;22.70;43.87;101354.94;10303266;28;20045;-65
2023/10/04 11:26:58;;;;;;;4.18;1.63;;;;;;;22.46;45.36;101343.19;10304160;28;20053;-65
2023/10/04 11:32:00;;;;;;;5.47;2.20;;;;;;;23.07;43.94;101332.50;10290531;28;20419;-66
2023/10/04 11:37:03;;;;;;;4.95;1.70;;;;;;;23.28;43.84;101342.78;10285827;28;20166;-65
2023/10/04 11:42:17;;;;;;;3.27;2.00;;;;;;;23.22;43.04;101332.63;10302044;28;20460;-68
2023/10/04 11:47:31;;;;;;;5.72;2.38;;;;;;;23.07;41.92;101334.41;10286401;28;20125;-66
2023/10/04 11:52:34;;;;;;;4.20;1.83;;;;;;;23.58;43.10;101331.16;10286721;28;20050;-66
2023/10/04 11:57:37;;;;;;;4.82;2.00;;;;;;;24.13;40.03;101331.84;10302548;28;20088;-65
2023/10/04 12:02:39;;;;;;;6.05;1.85;;;;;;;24.57;40.34;101303.75;10287300;28;20275;-65
2023/10/04 12:07:41;;;;;;;5.07;2.85;;;;;;;24.50;40.18;101289.22;10301748;28;20393;-65
2023/10/04 12:12:42;;;;;;;5.60;2.50;;;;;;;24.49;41.86;101279.38;10301283;28;20054;-65
2023/10/04 12:17:45;;;;;;;5.32;2.15;;;;;;;23.61;41.63;101271.00;10301262;28;20054;-66
2023/10/04 12:22:48;;;;;;;3.23;1.97;;;;;;;23.91;42.13;101261.03;10272623;28;20432;-65
2023/10/04 12:27:51;;;;;;;5.43;2.45;;;;;;;24.95;38.41;101248.28;10260149;28;20054;-65
2023/10/04 12:32:53;;;;;;;3.95;2.40;;;;;;;25.05;37.02;101238.75;10255580;28;20050;-67
2023/10/04 12:37:56;;;;;;;5.28;3.08;;;;;;;25.28;37.22;101251.31;10259994;28;20181;-66
2023/10/04 12:42:57;;;;;;;;;;;;;;;24.90;38.97;101250.75;10255560;28;20485;-66
2023/10/04 12:47:59;;;;;;;6.05;2.35;;;;;;;24.78;37.93;101256.69;10257819;28;20056;-65
2023/10/04 12:53:01;;;;;;;7.75;2.60;;;;;;;24.74;37.47;101246.38;10258903;28;20124;-66
2023/10/04 12:58:04;;;;;;;5.88;3.38;;;;;;;24.41;37.28;101239.53;10256716;28;20234;-66
2023/10/04 13:03:05;;;;;;;;;;;;;;;23.50;41.05;101242.41;10259483;28;20144;-67
2023/10/04 13:08:15;;;;;;;5.40;2.90;;;;;;;23.57;41.42;101254.22;10256196;28;19929;-67
2023/10/04 13:13:18;;;;;;;4.10;2.55;;;;;;;23.42;41.12;101245.19;10254930;28;20054;-65
2023/10/04 13:18:19;;;;;;;5.80;2.63;;;;;;;23.25;40.99;101250.78;10251788;28;20076;-64
2023/10/04 13:23:26;;;;;;;5.03;3.00;;;;;;;23.24;41.50;101229.22;10262506;28;20318;-64
2023/10/04 13:28:30;;;;;;;7.75;2.88;;;;;;;23.68;40.73;101238.50;10261813;28;20085;-65
2023/10/04 13:33:31;;;;;;;7.07;3.33;;;;;;;23.80;38.74;101182.66;10264483;28;20049;-65
2023/10/04 13:38:34;;;;;;;5.05;2.88;;;;;;;25.24;37.17;101223.63;10261318;28;20197;-64
2023/10/04 13:43:35;;;;;;;6.43;2.90;;;;;;;25.16;36.24;101217.47;10260749;28;20054;-65
2023/10/04 13:48:40;;;;;;;8.40;4.05;;;;;;;25.22;37.29;101208.50;10264301;28;20202;-63
2023/10/04 13:53:45;;;;;;;6.72;3.50;;;;;;;25.31;36.53;101210.09;10262771;28;20050;-64
2023/10/04 13:58:47;;;;;;;5.10;3.25;;;;;;;25.83;36.18;101204.34;10261521;28;20062;-64
2023/10/04 14:03:48;;;;;;;4.95;2.95;;;;;;;26.08;37.17;101210.16;10261118;28;20051;-64
2023/10/04 14:08:51;;;;;;;6.03;2.92;;;;;;;24.66;38.75;101220.97;10261602;28;20714;-65
2023/10/04 14:13:53;;;;;;;5.38;3.78;;;;;;;24.67;38.42;101208.22;10265697;28;20051;-65
2023/10/04 14:18:55;;;;;;;6.77;3.27;;;;;;;24.55;38.20;101207.84;10262060;28;20209;-64
2023/10/04 14:23:56;;;;;;;7.32;3.42;;;;;;;23.30;38.96;101209.50;10258078;28;20295;-65
2023/10/04 14:29:00;;;;;;;5.68;3.38;;;;;;;22.55;40.65;101205.66;10260666;28;20058;-65
2023/10/04 14:34:03;;;;;;;6.97;4.03;;;;;;;22.05;40.53;101142.66;10259174;28;20152;-64
2023/10/04 14:39:11;;;;;;;11.07;3.63;;;;;;;22.33;41.05;101193.75;10256844;28;20742;-64
2023/10/04 14:44:13;;;;;;;8.27;4.13;;;;;;;22.13;40.25;101185.16;10255069;28;20062;-64
2023/10/04 14:49:15;;;;;;;7.15;4.22;;;;;;;21.88;40.71;101169.00;10263908;28;20062;-64
2023/10/04 14:54:18;;;;;;;6.17;3.63;;;;;;;21.68;40.90;101165.88;10264436;28;20050;-64
2023/10/04 14:59:19;;;;;;;5.97;3.58;;;;;;;21.51;40.84;101165.06;10259060;28;20377;-64
2023/10/04 15:04:20;;;;;;;7.38;4.40;;;;;;;21.31;42.22;101160.00;10262327;28;20845;-64
2023/10/04 15:09:25;;;;;;;7.00;4.20;;;;;;;21.22;43.69;101160.19;10259416;28;20152;-65
2023/10/04 15:14:28;;;;;;;8.48;4.85;;;;;;;20.92;44.80;101160.72;10268245;28;20053;-65
2023/10/04 15:19:30;;;;;;;7.90;4.88;;;;;;;20.76;41.69;101172.41;10252685;28;20648;-64
2023/10/04 15:24:32;;;;;;;7.95;4.47;;;;;;;20.70;43.58;101167.63;10264725;28;20050;-64
2023/10/04 15:29:38;;;;;;;7.72;4.18;;;;;;;20.52;42.26;101167.75;10271368;28;20053;-64
2023/10/04 15:34:39;;;;;;;6.97;3.85;;;;;;;20.41;44.32;101165.38;10298039;28;20548;-64
2023/10/04 15:39:41;;;;;;;5.80;4.20;;;;;;;20.29;44.63;101164.84;10282994;28;20050;-64
2023/10/04 15:44:45;;;;;;;7.65;3.92;;;;;;;20.31;45.93;101181.72;10295885;28;20042;-64
2023/10/04 15:49:46;;;;;;;5.90;3.72;;;;;;;20.10;45.09;101180.34;10299360;28;20139;-64
2023/10/04 15:54:49;;;;;;;6.88;3.75;;;;;;;19.91;45.13;101184.13;10300724;28;20152;-64
2023/10/04 15:59:50;;;;;;;5.70;3.20;;;;;;;19.78;45.71;101184.56;10300125;28;20053;-64
2023/10/04 16:04:52;;;;;;;8.80;3.80;;;;;;;19.70;47.06;101192.63;10283172;28;20775;-63
2023/10/04 16:09:53;;;;;;;7.55;3.90;;;;;;;19.72;46.83;101182.50;10286377;28;20053;-67
2023/10/04 16:14:56;;;;;;;9.70;3.88;;;;;;;19.51;46.98;101176.66;10298325;28;20616;-65
2023/10/04 16:19:57;;;;;;;9.50;4.10;;;;;;;19.48;46.95;101175.09;10269439;28;20042;-64
2023/10/04 16:25:00;;;;;;;6.30;3.53;;;;;;;19.35;48.49;101162.03;10266173;28;20046;-65
2023/10/04 16:30:05;;;;;;;5.68;3.58;;;;;;;19.23;48.58;101163.28;10278502;28;20054;-65
2023/10/04 16:35:13;;;;;;;6.88;3.45;;;;;;;19.24;50.26;101160.44;10298458;28;20262;-64
2023/10/04 16:40:15;;;;;;;8.52;4.03;;;;;;;19.06;48.77;101146.97;10248158;28;20058;-65
2023/10/04 16:45:17;;;;;;;10.60;3.58;;;;;;;19.13;51.67;101167.97;10253310;28;20571;-64
2023/10/04 16:50:20;;;;;;;6.55;4.40;;;;;;;19.06;49.69;101176.66;10254329;28;20055;-65
2023/10/04 16:55:22;;;;;;;6.15;3.78;;;;;;;18.94;50.27;101158.19;10263903;28;20066;-64
2023/10/04 17:00:23;;;;;;;6.72;4.82;;;;;;;18.98;50.33;101179.31;10266348;28;20510;-65
2023/10/04 17:05:25;;;;;;;7.15;3.50;;;;;;;18.85;51.95;101171.59;10265344;28;20058;-65
2023/10/04 17:10:27;;;;;;;9.98;5.28;;;;;;;18.92;52.83;101171.00;10264706;28;20058;-66
2023/10/04 17:15:28;;;;;;;5.53;3.72;;;;;;;18.88;51.59;101176.69;10268406;28;20528;-64
2023/10/04 17:20:30;;;;;;;7.55;4.45;;;;;;;18.83;52.13;101172.75;10260534;28;20054;-64
2023/10/04 17:25:31;;;;;;;8.93;4.40;;;;;;;18.81;52.46;101180.13;10269078;28;20175;-64
2023/10/04 17:30:33;;;;;;;7.32;4.88;;;;;;;18.76;54.90;101187.84;10262393;28;20145;-64
2023/10/04 17:35:34;;;;;;;7.53;3.83;;;;;;;18.67;54.35;101173.44;10264956;28;20085;-64
2023/10/04 17:40:36;;;;;;;6.97;4.00;;;;;;;18.70;53.84;101184.75;10265176;28;20133;-65
2023/10/04 17:45:38;;;;;;;9.32;4.53;;;;;;;18.67;53.70;101185.06;10260895;28;20053;-64
2023/10/04 17:50:39;;;;;;;7.32;4.80;;;;;;;18.43;55.51;101147.09;10260667;28;20059;-65
2023/10/04 17:55:41;;;;;;;8.57;4.57;;;;;;;18.38;54.09;101143.00;10261474;28;20403;-67
2023/10/04 18:00:42;;;;;;;10.00;5.40;;;;;;;18.55;55.25;101181.78;10263205;28;20049;-67
2023/10/04 18:05:44;;;;;;;7.38;4.78;;;;;;;18.43;55.73;101187.53;10263176;28;20057;-67
2023/10/04 18:10:46;;;;;;;8.85;4.88;;;;;;;18.45;55.04;101201.69;10273067;28;20058;-68
2023/10/04 18:15:48;;;;;;;6.97;4.35;;;;;;;18.43;56.57;101198.31;10271787;28;20137;-68
2023/10/04 18:20:49;;;;;;;7.53;4.57;;;;;;;18.36;56.43;101192.69;10274722;28;20050;-67
2023/10/04 18:25:52;;;;;;;6.75;4.50;;;;;;;18.29;56.94;101183.50;10265714;28;20047;-66
2023/10/04 18:30:53;;;;;;;7.37;4.47;;;;;;;18.20;56.33;101174.47;10262464;28;20664;-66
2023/10/04 18:35:55;;;;;;;7.53;4.05;;;;;;;18.22;57.18;101179.72;10263700;28;20051;-66
2023/10/04 18:40:56;;;;;;;6.00;4.60;;;;;;;18.20;57.46;101190.66;10262867;28;20527;-66
2023/10/04 18:45:58;;;;;;;7.40;4.60;;;;;;;18.14;57.49;101189.38;10257302;28;20050;-64
2023/10/04 18:50:59;;;;;;;9.07;5.70;;;;;;;18.00;57.42;101179.13;10262136;28;20073;-68
2023/10/04 18:56:01;;;;;;;8.10;4.57;;;;;;;18.04;58.64;101188.59;10261876;28;20084;-67
2023/10/04 19:01:03;;;;;;;8.27;4.60;;;;;;;17.87;58.68;101171.34;10260235;28;20131;-66
2023/10/04 19:06:05;;;;;;;6.90;4.40;;;;;;;17.89;59.11;101196.31;10259333;28;20054;-66
2023/10/04 19:11:07;;;;;;;7.85;4.68;;;;;;;17.75;59.31;101168.00;10260530;28;20144;-67
2023/10/04 19:16:09;;;;;;;8.02;5.35;;;;;;;17.81;59.87;101188.13;10258438;28;20152;-66
2023/10/04 19:21:10;;;;;;;8.90;5.28;;;;;;;17.77;60.33;101186.69;10296951;28;20054;-67
2023/10/04 19:26:12;;;;;;;7.10;5.05;;;;;;;17.67;59.72;101192.97;10298566;28;20065;-67
2023/10/04 19:31:13;;;;;;;7.70;5.00;;;;;;;17.63;60.64;101188.03;10298927;28;20141;-66
2023/10/04 19:36:16;;;;;;;8.27;5.20;;;;;;;17.61;60.09;101200.78;10300739;28;20053;-64
2023/10/04 19:41:18;;;;;;;9.05;5.05;;;;;;;17.56;59.89;101193.13;10303322;28;20543;-65
2023/10/04 19:46:20;;;;;;;9.27;5.47;;;;;;;17.54;60.66;101194.31;10286945;28;20172;-66
2023/10/04 19:51:21;;;;;;;9.10;5.75;;;;;;;17.48;60.51;101187.66;10298265;28;20066;-66
2023/10/04 19:56:23;;;;;;;10.40;5.88;;;;;;;17.45;61.71;101193.31;10299079;28;20925;-67
2023/10/04 20:01:24;;;;;;;12.63;5.85;;;;;;;17.39;61.92;101193.91;10286916;28;20132;-69
2023/10/04 20:06:26;;;;;;;11.40;6.20;;;;;;;17.28;62.72;101186.88;10299802;28;20117;-68
2023/10/04 20:11:29;;;;;;;10.13;5.88;;;;;;;16.83;62.92;101126.44;10299616;28;20193;-67
2023/10/04 20:16:31;;;;;;;10.18;6.95;;;;;;;17.26;63.47;101194.22;10298978;28;20970;-65
2023/10/04 20:21:32;;;;;;;9.68;5.68;;;;;;;17.19;64.08;101193.94;10301767;28;20161;-66
2023/10/04 20:26:34;;;;;;;9.85;5.82;;;;;;;17.08;63.51;101180.66;10302242;28;20062;-64
2023/10/04 20:31:36;;;;;;;11.63;6.53;;;;;;;17.00;63.15;101177.84;10292994;28;20054;-65
2023/10/04 20:36:39;;;;;;;10.77;7.38;;;;;;;16.99;63.40;101181.50;10310093;28;20344;-66
2023/10/04 20:41:40;;;;;;;8.15;5.30;;;;;;;16.87;63.20;101181.63;10308892;28;20053;-66
2023/10/04 20:46:42;;;;;;;7.28;5.25;;;;;;;16.83;64.13;101182.91;10313029;28;20197;-64
2023/10/04 20:51:45;;;;;;;11.88;5.95;;;;;;;16.72;64.35;101169.59;10307785;28;20710;-65
2023/10/04 20:56:47;;;;;;;8.55;5.15;;;;;;;16.66;64.38;101175.53;10310649;28;20049;-66
2023/10/04 21:01:49;;;;;;;10.35;5.70;;;;;;;16.66;64.83;101162.09;10309103;28;20049;-66
2023/10/04 21:06:51;;;;;;;8.70;5.90;;;;;;;16.69;65.18;101175.25;10310082;28;20057;-65
2023/10/04 21:11:53;;;;;;;10.25;6.15;;;;;;;16.64;65.09;101166.78;10299802;28;20495;-65
2023/10/04 21:16:54;;;;;;;10.52;5.75;;;;;;;16.55;65.59;101165.78;10307179;28;20049;-65
2023/10/04 21:21:56;;;;;;;13.05;6.40;;;;;;;16.39;66.36;101158.25;10302850;28;20049;-64
2023/10/04 21:26:57;;;;;;;11.85;5.57;;;;;;;16.33;64.67;101156.13;10314484;28;20706;-65
2023/10/04 21:31:59;;;;;;;10.73;5.15;;;;;;;16.35;65.29;101162.19;10314454;28;20338;-64
2023/10/04 21:37:08;;;;;;;8.05;4.97;;;;;;;16.28;65.54;101151.16;10313058;28;20061;-65
2023/10/04 21:42:09;;;;;;;8.90;5.47;;;;;;;16.28;65.24;101155.72;10311452;28;20049;-66
2023/10/04 21:47:26;;;;;;;9.50;5.40;;;;;;;16.20;65.85;101149.19;10308924;28;20062;-64
2023/10/04 21:52:30;;;;;;;9.57;5.63;;;;;;;16.06;65.73;101131.63;10297454;28;20440;-64
2023/10/04 21:57:32;;;;;;;8.88;4.75;;;;;;;16.04;66.05;101136.28;10304215;28;20840;-65
2023/10/04 22:02:33;;;;;;;9.45;7.00;;;;;;;15.99;66.00;101132.28;10311111;28;20137;-64
2023/10/04 22:07:35;;;;;;;8.77;5.70;;;;;;;15.97;65.41;101145.84;10311122;28;20061;-65
2023/10/04 22:12:39;;;;;;;9.40;5.07;;;;;;;15.90;66.65;101148.25;10298063;28;20108;-66
2023/10/04 22:17:41;;;;;;;10.20;5.78;;;;;;;15.88;66.67;101139.50;10296679;28;20054;-65
2023/10/04 22:22:42;;;;;;;11.32;5.30;;;;;;;15.71;66.63;101113.25;10309281;28;20191;-66
2023/10/04 22:27:44;;;;;;;9.77;4.15;;;;;;;15.71;67.11;101115.94;10306783;28;20064;-63
2023/10/04 22:32:46;;;;;;;7.45;4.75;;;;;;;15.69;66.46;101123.28;10301493;28;20050;-66
2023/10/04 22:37:48;;;;;;;9.20;4.97;;;;;;;15.56;67.58;101112.78;10301853;28;20502;-64
2023/10/04 22:42:51;;;;;;;8.75;4.20;;;;;;;15.58;66.81;101112.66;10305204;28;20488;-64
2023/10/04 22:47:55;;;;;;;7.95;4.38;;;;;;;15.46;67.55;101103.84;10304270;28;20068;-64
2023/10/04 22:52:56;;;;;;;8.38;4.60;;;;;;;15.40;67.97;101097.16;10307168;28;20069;-64
2023/10/04 22:57:58;;;;;;;9.07;4.68;;;;;;;15.34;68.94;101087.84;10311343;28;20067;-64
2023/10/04 23:03:00;;;;;;;8.82;4.93;;;;;;;15.33;68.88;101085.31;10308088;28;20058;-66
2023/10/04 23:08:02;;;;;;;7.32;4.25;;;;;;;15.22;68.61;101088.06;10307965;28;20080;-64
2023/10/04 23:13:03;;;;;;;7.60;4.03;;;;;;;15.12;70.04;101094.22;10295500;28;20501;-65